ESSA/ARN METAR and TAF weather

Enter ICAO airport designator
Station Type Date Time Source
ESSA METAR 2021/03/01 03:20 UTC NOAA

ESSA 010320Z 22005KT CAVOK M00/M01 Q1024 R01L/09//95 R08/09//95 R01R/09//95 NOSIG


Station Type Date Time Source
ESSA Decoded METAR 2021/03/01 03:20 UTC NOAA

Stockholm / Arlanda, Sweden (ESSA) 59-39N 017-57E 61M
Feb 28, 2021 - 10:20 PM EST / 2021.03.01 0320 UTC
Wind: from the SW (220 degrees) at 6 MPH (5 KT):0
Visibility: greater than 7 mile(s):0
Temperature: 32 F (0 C)
Windchill: 26 F (-3 C):1
Dew Point: 30 F (-1 C)
Relative Humidity: 92%
Pressure (altimeter): 30.24 in. Hg (1024 hPa)
ob: ESSA 010320Z 22005KT CAVOK M00/M01 Q1024 R01L/09//95 R08/09//95 R01R/09//95 NOSIG
cycle: 3

Station Type Date Time Source
ESSA TAF 2021/02/28 18:09 UTC NOAA

TAF ESSA 281730Z 2818/0118 24004KT CAVOK PROB40 0100/0106 3000 BR

Example: see airport list